sensor_id;sensor_type;location;lat;lon;timestamp;P1;durP1;ratioP1;P2;durP2;ratioP2
21305;SDS011;10812;51.838;5.838;2023-01-09T00:01:24;1.13;;;0.97;;
21305;SDS011;10812;51.838;5.838;2023-01-09T00:03:55;0.73;;;0.40;;
21305;SDS011;10812;51.838;5.838;2023-01-09T00:06:24;2.43;;;0.33;;
21305;SDS011;10812;51.838;5.838;2023-01-09T00:08:52;1.93;;;0.50;;
21305;SDS011;10812;51.838;5.838;2023-01-09T00:11:20;1.40;;;0.93;;
21305;SDS011;10812;51.838;5.838;2023-01-09T00:13:48;1.00;;;0.80;;
21305;SDS011;10812;51.838;5.838;2023-01-09T00:16:16;1.93;;;0.60;;
21305;SDS011;10812;51.838;5.838;2023-01-09T00:18:45;1.90;;;0.93;;
21305;SDS011;10812;51.838;5.838;2023-01-09T00:21:14;1.77;;;0.80;;
21305;SDS011;10812;51.838;5.838;2023-01-09T00:23:42;3.33;;;0.63;;
21305;SDS011;10812;51.838;5.838;2023-01-09T00:26:11;1.10;;;0.50;;
21305;SDS011;10812;51.838;5.838;2023-01-09T00:28:42;0.90;;;0.43;;
21305;SDS011;10812;51.838;5.838;2023-01-09T00:31:11;0.40;;;0.40;;
21305;SDS011;10812;51.838;5.838;2023-01-09T00:33:40;2.00;;;0.70;;
21305;SDS011;10812;51.838;5.838;2023-01-09T00:36:09;1.73;;;0.80;;
21305;SDS011;10812;51.838;5.838;2023-01-09T00:38:39;1.03;;;0.63;;
21305;SDS011;10812;51.838;5.838;2023-01-09T00:41:08;1.20;;;0.60;;
21305;SDS011;10812;51.838;5.838;2023-01-09T00:43:42;3.60;;;0.97;;
21305;SDS011;10812;51.838;5.838;2023-01-09T00:46:11;2.13;;;0.80;;
21305;SDS011;10812;51.838;5.838;2023-01-09T00:48:41;0.80;;;0.40;;
21305;SDS011;10812;51.838;5.838;2023-01-09T00:51:11;0.87;;;0.77;;
21305;SDS011;10812;51.838;5.838;2023-01-09T00:53:42;2.27;;;0.90;;
21305;SDS011;10812;51.838;5.838;2023-01-09T00:56:12;2.07;;;1.00;;
21305;SDS011;10812;51.838;5.838;2023-01-09T00:58:41;5.77;;;1.27;;
21305;SDS011;10812;51.838;5.838;2023-01-09T01:01:10;3.50;;;0.87;;
21305;SDS011;10812;51.838;5.838;2023-01-09T01:03:38;1.20;;;0.60;;
21305;SDS011;10812;51.838;5.838;2023-01-09T01:06:07;5.33;;;1.43;;
21305;SDS011;10812;51.838;5.838;2023-01-09T01:08:53;1.97;;;1.10;;
21305;SDS011;10812;51.838;5.838;2023-01-09T01:11:22;2.20;;;0.90;;
21305;SDS011;10812;51.838;5.838;2023-01-09T01:13:50;1.80;;;1.30;;
21305;SDS011;10812;51.838;5.838;2023-01-09T01:16:19;2.03;;;1.00;;
21305;SDS011;10812;51.838;5.838;2023-01-09T01:18:47;2.03;;;1.27;;
21305;SDS011;10812;51.838;5.838;2023-01-09T01:21:15;2.70;;;1.30;;
21305;SDS011;10812;51.838;5.838;2023-01-09T01:23:44;6.57;;;2.13;;
21305;SDS011;10812;51.838;5.838;2023-01-09T01:26:14;3.77;;;1.50;;
21305;SDS011;10812;51.838;5.838;2023-01-09T01:28:43;3.33;;;1.30;;
21305;SDS011;10812;51.838;5.838;2023-01-09T01:31:15;1.80;;;1.20;;
21305;SDS011;10812;51.838;5.838;2023-01-09T01:33:43;5.10;;;1.60;;
21305;SDS011;10812;51.838;5.838;2023-01-09T01:36:12;4.63;;;2.00;;
21305;SDS011;10812;51.838;5.838;2023-01-09T01:38:42;3.53;;;1.33;;
21305;SDS011;10812;51.838;5.838;2023-01-09T01:41:13;2.97;;;1.30;;
21305;SDS011;10812;51.838;5.838;2023-01-09T01:43:55;3.27;;;1.20;;
21305;SDS011;10812;51.838;5.838;2023-01-09T01:46:24;2.00;;;1.60;;
21305;SDS011;10812;51.838;5.838;2023-01-09T01:48:54;1.93;;;1.03;;
21305;SDS011;10812;51.838;5.838;2023-01-09T01:59:05;4.40;;;2.33;;
21305;SDS011;10812;51.838;5.838;2023-01-09T02:01:37;1.57;;;1.20;;
21305;SDS011;10812;51.838;5.838;2023-01-09T02:04:09;3.30;;;1.73;;
21305;SDS011;10812;51.838;5.838;2023-01-09T02:06:38;5.40;;;1.77;;
21305;SDS011;10812;51.838;5.838;2023-01-09T02:09:07;6.33;;;2.90;;
21305;SDS011;10812;51.838;5.838;2023-01-09T02:11:42;9.57;;;3.13;;
21305;SDS011;10812;51.838;5.838;2023-01-09T02:14:13;9.70;;;4.07;;
21305;SDS011;10812;51.838;5.838;2023-01-09T02:16:44;8.50;;;3.20;;
21305;SDS011;10812;51.838;5.838;2023-01-09T02:19:24;5.93;;;2.57;;
21305;SDS011;10812;51.838;5.838;2023-01-09T02:22:11;14.80;;;5.57;;
21305;SDS011;10812;51.838;5.838;2023-01-09T02:24:50;5.07;;;2.70;;
21305;SDS011;10812;51.838;5.838;2023-01-09T02:27:50;3.90;;;2.40;;
21305;SDS011;10812;51.838;5.838;2023-01-09T02:30:41;1.63;;;1.30;;
21305;SDS011;10812;51.838;5.838;2023-01-09T02:33:19;2.27;;;1.03;;
21305;SDS011;10812;51.838;5.838;2023-01-09T02:36:00;3.37;;;1.27;;
21305;SDS011;10812;51.838;5.838;2023-01-09T02:38:40;3.30;;;1.67;;
21305;SDS011;10812;51.838;5.838;2023-01-09T02:41:15;5.43;;;1.77;;
21305;SDS011;10812;51.838;5.838;2023-01-09T02:43:47;2.80;;;1.30;;
21305;SDS011;10812;51.838;5.838;2023-01-09T02:46:18;4.33;;;2.27;;
21305;SDS011;10812;51.838;5.838;2023-01-09T02:48:48;9.30;;;3.57;;
21305;SDS011;10812;51.838;5.838;2023-01-09T02:51:20;4.03;;;1.80;;
21305;SDS011;10812;51.838;5.838;2023-01-09T02:54:07;3.37;;;1.97;;
21305;SDS011;10812;51.838;5.838;2023-01-09T02:56:51;3.00;;;1.50;;
21305;SDS011;10812;51.838;5.838;2023-01-09T02:59:37;2.10;;;1.20;;
21305;SDS011;10812;51.838;5.838;2023-01-09T03:07:42;2.57;;;1.20;;
21305;SDS011;10812;51.838;5.838;2023-01-09T03:10:15;1.53;;;1.13;;
21305;SDS011;10812;51.838;5.838;2023-01-09T03:12:49;3.17;;;1.43;;
21305;SDS011;10812;51.838;5.838;2023-01-09T03:15:22;2.00;;;1.30;;
21305;SDS011;10812;51.838;5.838;2023-01-09T03:17:52;2.87;;;1.40;;
21305;SDS011;10812;51.838;5.838;2023-01-09T03:20:22;4.07;;;1.13;;
21305;SDS011;10812;51.838;5.838;2023-01-09T03:22:55;3.50;;;1.33;;
21305;SDS011;10812;51.838;5.838;2023-01-09T03:25:25;7.80;;;2.10;;
21305;SDS011;10812;51.838;5.838;2023-01-09T03:27:55;3.03;;;1.50;;
21305;SDS011;10812;51.838;5.838;2023-01-09T03:30:24;2.67;;;1.20;;
21305;SDS011;10812;51.838;5.838;2023-01-09T03:32:54;3.60;;;1.43;;
21305;SDS011;10812;51.838;5.838;2023-01-09T03:35:23;2.47;;;1.23;;
21305;SDS011;10812;51.838;5.838;2023-01-09T03:37:52;2.67;;;1.70;;
21305;SDS011;10812;51.838;5.838;2023-01-09T03:40:22;1.53;;;1.43;;
21305;SDS011;10812;51.838;5.838;2023-01-09T03:42:50;2.63;;;1.20;;
21305;SDS011;10812;51.838;5.838;2023-01-09T03:45:18;4.10;;;1.53;;
21305;SDS011;10812;51.838;5.838;2023-01-09T03:47:46;4.83;;;1.47;;
21305;SDS011;10812;51.838;5.838;2023-01-09T03:50:17;4.47;;;1.20;;
21305;SDS011;10812;51.838;5.838;2023-01-09T03:52:45;3.17;;;1.50;;
21305;SDS011;10812;51.838;5.838;2023-01-09T03:55:13;4.30;;;1.43;;
21305;SDS011;10812;51.838;5.838;2023-01-09T03:57:43;3.97;;;1.53;;
21305;SDS011;10812;51.838;5.838;2023-01-09T04:00:11;3.43;;;1.43;;
21305;SDS011;10812;51.838;5.838;2023-01-09T04:02:40;4.33;;;1.83;;
21305;SDS011;10812;51.838;5.838;2023-01-09T04:05:08;3.43;;;1.60;;
21305;SDS011;10812;51.838;5.838;2023-01-09T04:07:37;2.47;;;1.60;;
21305;SDS011;10812;51.838;5.838;2023-01-09T04:10:05;4.93;;;2.03;;
21305;SDS011;10812;51.838;5.838;2023-01-09T04:12:34;3.80;;;1.70;;
21305;SDS011;10812;51.838;5.838;2023-01-09T04:15:04;3.87;;;2.10;;
21305;SDS011;10812;51.838;5.838;2023-01-09T04:17:33;5.53;;;2.43;;
21305;SDS011;10812;51.838;5.838;2023-01-09T04:20:01;5.83;;;2.70;;
21305;SDS011;10812;51.838;5.838;2023-01-09T04:22:30;5.33;;;2.57;;
21305;SDS011;10812;51.838;5.838;2023-01-09T04:24:58;7.60;;;2.73;;
21305;SDS011;10812;51.838;5.838;2023-01-09T04:27:26;4.00;;;2.67;;
21305;SDS011;10812;51.838;5.838;2023-01-09T04:29:54;6.83;;;2.57;;
21305;SDS011;10812;51.838;5.838;2023-01-09T04:32:23;7.07;;;2.17;;
21305;SDS011;10812;51.838;5.838;2023-01-09T04:34:53;7.23;;;2.83;;
21305;SDS011;10812;51.838;5.838;2023-01-09T04:37:21;5.63;;;2.93;;
21305;SDS011;10812;51.838;5.838;2023-01-09T04:39:50;5.27;;;2.80;;
21305;SDS011;10812;51.838;5.838;2023-01-09T04:42:21;8.03;;;3.30;;
21305;SDS011;10812;51.838;5.838;2023-01-09T04:44:49;5.73;;;2.60;;
21305;SDS011;10812;51.838;5.838;2023-01-09T04:47:19;6.20;;;2.27;;
21305;SDS011;10812;51.838;5.838;2023-01-09T04:49:50;2.23;;;1.67;;
21305;SDS011;10812;51.838;5.838;2023-01-09T04:52:18;4.30;;;2.30;;
21305;SDS011;10812;51.838;5.838;2023-01-09T04:54:46;2.97;;;1.70;;
21305;SDS011;10812;51.838;5.838;2023-01-09T04:57:14;8.80;;;2.20;;
21305;SDS011;10812;51.838;5.838;2023-01-09T04:59:42;6.77;;;2.37;;
21305;SDS011;10812;51.838;5.838;2023-01-09T05:02:10;4.90;;;1.60;;
21305;SDS011;10812;51.838;5.838;2023-01-09T05:04:39;3.07;;;1.50;;
21305;SDS011;10812;51.838;5.838;2023-01-09T05:07:08;8.57;;;2.00;;
21305;SDS011;10812;51.838;5.838;2023-01-09T05:09:36;6.80;;;2.13;;
21305;SDS011;10812;51.838;5.838;2023-01-09T05:12:04;6.07;;;1.77;;
21305;SDS011;10812;51.838;5.838;2023-01-09T05:14:33;2.87;;;1.40;;
21305;SDS011;10812;51.838;5.838;2023-01-09T05:17:01;3.43;;;1.60;;
21305;SDS011;10812;51.838;5.838;2023-01-09T05:19:29;4.70;;;1.40;;
21305;SDS011;10812;51.838;5.838;2023-01-09T05:21:57;5.57;;;1.77;;
21305;SDS011;10812;51.838;5.838;2023-01-09T05:24:26;2.10;;;1.20;;
21305;SDS011;10812;51.838;5.838;2023-01-09T05:26:55;3.73;;;1.47;;
21305;SDS011;10812;51.838;5.838;2023-01-09T05:29:23;4.20;;;1.77;;
21305;SDS011;10812;51.838;5.838;2023-01-09T05:31:52;4.50;;;1.57;;
21305;SDS011;10812;51.838;5.838;2023-01-09T05:34:20;2.87;;;1.43;;
21305;SDS011;10812;51.838;5.838;2023-01-09T05:36:48;6.90;;;1.63;;
21305;SDS011;10812;51.838;5.838;2023-01-09T05:39:16;4.23;;;1.60;;
21305;SDS011;10812;51.838;5.838;2023-01-09T05:41:46;3.87;;;1.40;;
21305;SDS011;10812;51.838;5.838;2023-01-09T05:44:14;4.40;;;1.53;;
21305;SDS011;10812;51.838;5.838;2023-01-09T05:46:42;4.73;;;1.30;;
21305;SDS011;10812;51.838;5.838;2023-01-09T05:49:10;4.53;;;1.50;;
21305;SDS011;10812;51.838;5.838;2023-01-09T05:51:39;5.80;;;1.57;;
21305;SDS011;10812;51.838;5.838;2023-01-09T05:54:07;5.90;;;1.83;;
21305;SDS011;10812;51.838;5.838;2023-01-09T05:56:35;3.60;;;1.50;;
21305;SDS011;10812;51.838;5.838;2023-01-09T05:59:04;6.50;;;1.67;;
21305;SDS011;10812;51.838;5.838;2023-01-09T06:01:32;4.00;;;1.27;;
21305;SDS011;10812;51.838;5.838;2023-01-09T06:04:00;9.73;;;1.93;;
21305;SDS011;10812;51.838;5.838;2023-01-09T06:06:28;3.93;;;1.47;;
21305;SDS011;10812;51.838;5.838;2023-01-09T06:08:57;2.07;;;1.17;;
21305;SDS011;10812;51.838;5.838;2023-01-09T06:11:25;4.53;;;1.27;;
21305;SDS011;10812;51.838;5.838;2023-01-09T06:13:53;3.93;;;1.43;;
21305;SDS011;10812;51.838;5.838;2023-01-09T06:16:22;2.90;;;1.43;;
21305;SDS011;10812;51.838;5.838;2023-01-09T06:18:51;5.83;;;1.53;;
21305;SDS011;10812;51.838;5.838;2023-01-09T06:21:19;2.90;;;1.20;;
21305;SDS011;10812;51.838;5.838;2023-01-09T06:23:47;6.07;;;1.50;;
21305;SDS011;10812;51.838;5.838;2023-01-09T06:26:15;7.67;;;1.40;;
21305;SDS011;10812;51.838;5.838;2023-01-09T06:28:43;5.80;;;1.50;;
21305;SDS011;10812;51.838;5.838;2023-01-09T06:31:11;4.70;;;1.67;;
21305;SDS011;10812;51.838;5.838;2023-01-09T06:33:40;4.10;;;1.27;;
21305;SDS011;10812;51.838;5.838;2023-01-09T06:36:09;3.80;;;1.43;;
21305;SDS011;10812;51.838;5.838;2023-01-09T06:38:37;6.83;;;1.40;;
21305;SDS011;10812;51.838;5.838;2023-01-09T06:41:05;5.20;;;1.30;;
21305;SDS011;10812;51.838;5.838;2023-01-09T06:43:33;3.67;;;1.10;;
21305;SDS011;10812;51.838;5.838;2023-01-09T06:46:01;4.63;;;1.20;;
21305;SDS011;10812;51.838;5.838;2023-01-09T06:48:31;4.90;;;1.33;;
21305;SDS011;10812;51.838;5.838;2023-01-09T06:51:00;5.87;;;1.37;;
21305;SDS011;10812;51.838;5.838;2023-01-09T06:53:28;6.47;;;1.50;;
21305;SDS011;10812;51.838;5.838;2023-01-09T06:55:56;4.40;;;1.37;;
21305;SDS011;10812;51.838;5.838;2023-01-09T06:58:25;5.20;;;1.40;;
21305;SDS011;10812;51.838;5.838;2023-01-09T07:00:53;6.93;;;1.33;;
21305;SDS011;10812;51.838;5.838;2023-01-09T07:03:21;5.50;;;1.13;;
21305;SDS011;10812;51.838;5.838;2023-01-09T07:05:49;6.03;;;1.27;;
21305;SDS011;10812;51.838;5.838;2023-01-09T07:08:19;4.27;;;1.50;;
21305;SDS011;10812;51.838;5.838;2023-01-09T07:10:47;3.47;;;1.23;;
21305;SDS011;10812;51.838;5.838;2023-01-09T07:13:15;6.33;;;1.63;;
21305;SDS011;10812;51.838;5.838;2023-01-09T07:15:43;8.00;;;1.57;;
21305;SDS011;10812;51.838;5.838;2023-01-09T07:18:12;3.40;;;1.23;;
21305;SDS011;10812;51.838;5.838;2023-01-09T07:20:40;4.20;;;1.40;;
21305;SDS011;10812;51.838;5.838;2023-01-09T07:23:09;3.80;;;1.50;;
21305;SDS011;10812;51.838;5.838;2023-01-09T07:25:41;7.40;;;1.90;;
21305;SDS011;10812;51.838;5.838;2023-01-09T07:28:10;4.30;;;1.63;;
21305;SDS011;10812;51.838;5.838;2023-01-09T07:30:38;5.93;;;1.70;;
21305;SDS011;10812;51.838;5.838;2023-01-09T07:33:06;4.60;;;1.33;;
21305;SDS011;10812;51.838;5.838;2023-01-09T07:35:34;7.03;;;1.43;;
21305;SDS011;10812;51.838;5.838;2023-01-09T07:38:02;2.57;;;1.40;;
21305;SDS011;10812;51.838;5.838;2023-01-09T07:40:30;3.93;;;1.53;;
21305;SDS011;10812;51.838;5.838;2023-01-09T07:43:00;3.17;;;1.63;;
21305;SDS011;10812;51.838;5.838;2023-01-09T07:45:28;6.03;;;2.00;;
21305;SDS011;10812;51.838;5.838;2023-01-09T07:47:56;5.07;;;2.17;;
21305;SDS011;10812;51.838;5.838;2023-01-09T07:50:24;6.67;;;1.80;;
21305;SDS011;10812;51.838;5.838;2023-01-09T07:52:52;9.07;;;3.03;;
21305;SDS011;10812;51.838;5.838;2023-01-09T07:55:20;13.10;;;2.13;;
21305;SDS011;10812;51.838;5.838;2023-01-09T07:57:49;4.53;;;1.33;;
21305;SDS011;10812;51.838;5.838;2023-01-09T08:00:19;7.30;;;2.07;;
21305;SDS011;10812;51.838;5.838;2023-01-09T08:02:50;7.53;;;2.10;;
21305;SDS011;10812;51.838;5.838;2023-01-09T08:05:19;7.60;;;2.93;;
21305;SDS011;10812;51.838;5.838;2023-01-09T08:07:48;3.53;;;1.67;;
21305;SDS011;10812;51.838;5.838;2023-01-09T08:10:17;4.13;;;1.87;;
21305;SDS011;10812;51.838;5.838;2023-01-09T08:12:46;3.97;;;1.37;;
21305;SDS011;10812;51.838;5.838;2023-01-09T08:15:15;5.07;;;1.70;;
21305;SDS011;10812;51.838;5.838;2023-01-09T08:17:45;7.13;;;1.73;;
21305;SDS011;10812;51.838;5.838;2023-01-09T08:20:14;5.10;;;1.80;;
21305;SDS011;10812;51.838;5.838;2023-01-09T08:22:44;7.57;;;1.90;;
21305;SDS011;10812;51.838;5.838;2023-01-09T08:25:16;3.67;;;2.00;;
21305;SDS011;10812;51.838;5.838;2023-01-09T08:27:44;6.67;;;2.07;;
21305;SDS011;10812;51.838;5.838;2023-01-09T08:30:13;5.03;;;1.90;;
21305;SDS011;10812;51.838;5.838;2023-01-09T08:32:42;6.07;;;1.97;;
21305;SDS011;10812;51.838;5.838;2023-01-09T08:35:16;5.73;;;1.80;;
21305;SDS011;10812;51.838;5.838;2023-01-09T08:37:44;4.03;;;2.20;;
21305;SDS011;10812;51.838;5.838;2023-01-09T08:40:13;4.03;;;2.10;;
21305;SDS011;10812;51.838;5.838;2023-01-09T08:42:44;4.93;;;2.20;;
21305;SDS011;10812;51.838;5.838;2023-01-09T08:45:30;4.87;;;2.20;;
21305;SDS011;10812;51.838;5.838;2023-01-09T08:48:17;4.83;;;2.50;;
21305;SDS011;10812;51.838;5.838;2023-01-09T08:50:45;7.90;;;2.67;;
21305;SDS011;10812;51.838;5.838;2023-01-09T08:53:13;4.27;;;2.23;;
21305;SDS011;10812;51.838;5.838;2023-01-09T08:55:42;5.33;;;2.30;;
21305;SDS011;10812;51.838;5.838;2023-01-09T08:58:10;6.30;;;2.40;;
21305;SDS011;10812;51.838;5.838;2023-01-09T09:00:38;4.67;;;2.97;;
21305;SDS011;10812;51.838;5.838;2023-01-09T09:03:07;3.07;;;2.10;;
21305;SDS011;10812;51.838;5.838;2023-01-09T09:05:38;2.93;;;2.30;;
21305;SDS011;10812;51.838;5.838;2023-01-09T09:08:06;3.67;;;2.77;;
21305;SDS011;10812;51.838;5.838;2023-01-09T09:10:34;4.13;;;2.43;;
21305;SDS011;10812;51.838;5.838;2023-01-09T09:13:02;4.80;;;2.60;;
21305;SDS011;10812;51.838;5.838;2023-01-09T09:15:30;4.57;;;2.70;;
21305;SDS011;10812;51.838;5.838;2023-01-09T09:18:00;5.63;;;3.30;;
21305;SDS011;10812;51.838;5.838;2023-01-09T09:20:30;5.27;;;2.70;;
21305;SDS011;10812;51.838;5.838;2023-01-09T09:23:01;5.80;;;2.70;;
21305;SDS011;10812;51.838;5.838;2023-01-09T09:25:30;3.83;;;2.53;;
21305;SDS011;10812;51.838;5.838;2023-01-09T09:27:58;3.23;;;2.27;;
21305;SDS011;10812;51.838;5.838;2023-01-09T09:30:27;6.37;;;2.60;;
21305;SDS011;10812;51.838;5.838;2023-01-09T09:32:55;3.63;;;2.30;;
21305;SDS011;10812;51.838;5.838;2023-01-09T09:35:23;5.13;;;2.50;;
21305;SDS011;10812;51.838;5.838;2023-01-09T09:37:52;5.73;;;2.10;;
21305;SDS011;10812;51.838;5.838;2023-01-09T09:40:26;4.27;;;2.47;;
21305;SDS011;10812;51.838;5.838;2023-01-09T09:46:27;4.57;;;2.07;;
21305;SDS011;10812;51.838;5.838;2023-01-09T09:49:04;8.10;;;2.77;;
21305;SDS011;10812;51.838;5.838;2023-01-09T09:54:31;5.47;;;2.80;;
21305;SDS011;10812;51.838;5.838;2023-01-09T09:57:02;2.87;;;2.27;;
21305;SDS011;10812;51.838;5.838;2023-01-09T09:59:33;3.60;;;2.90;;
21305;SDS011;10812;51.838;5.838;2023-01-09T10:02:07;3.43;;;2.97;;
21305;SDS011;10812;51.838;5.838;2023-01-09T10:04:49;4.70;;;3.30;;
21305;SDS011;10812;51.838;5.838;2023-01-09T10:07:23;3.53;;;2.73;;
21305;SDS011;10812;51.838;5.838;2023-01-09T10:09:55;4.47;;;2.70;;
21305;SDS011;10812;51.838;5.838;2023-01-09T10:12:28;4.67;;;3.27;;
21305;SDS011;10812;51.838;5.838;2023-01-09T10:14:58;5.10;;;3.10;;
21305;SDS011;10812;51.838;5.838;2023-01-09T10:17:34;3.83;;;3.17;;
21305;SDS011;10812;51.838;5.838;2023-01-09T10:20:32;4.00;;;2.57;;
21305;SDS011;10812;51.838;5.838;2023-01-09T10:23:25;3.57;;;2.60;;
21305;SDS011;10812;51.838;5.838;2023-01-09T10:26:15;5.73;;;2.67;;
21305;SDS011;10812;51.838;5.838;2023-01-09T10:28:58;5.40;;;2.67;;
21305;SDS011;10812;51.838;5.838;2023-01-09T10:35:20;7.63;;;3.50;;
21305;SDS011;10812;51.838;5.838;2023-01-09T10:38:13;4.43;;;2.77;;
21305;SDS011;10812;51.838;5.838;2023-01-09T10:40:45;5.77;;;3.03;;
21305;SDS011;10812;51.838;5.838;2023-01-09T10:43:19;3.93;;;2.50;;
21305;SDS011;10812;51.838;5.838;2023-01-09T10:45:58;2.83;;;2.40;;
21305;SDS011;10812;51.838;5.838;2023-01-09T10:48:31;3.77;;;2.87;;
21305;SDS011;10812;51.838;5.838;2023-01-09T10:51:01;5.73;;;3.30;;
21305;SDS011;10812;51.838;5.838;2023-01-09T10:53:33;4.60;;;2.80;;
21305;SDS011;10812;51.838;5.838;2023-01-09T10:56:06;5.37;;;2.90;;
21305;SDS011;10812;51.838;5.838;2023-01-09T10:58:42;7.70;;;2.83;;
21305;SDS011;10812;51.838;5.838;2023-01-09T11:01:11;3.47;;;2.57;;
21305;SDS011;10812;51.838;5.838;2023-01-09T11:03:40;4.37;;;2.70;;
21305;SDS011;10812;51.838;5.838;2023-01-09T11:06:17;6.93;;;3.30;;
21305;SDS011;10812;51.838;5.838;2023-01-09T11:08:48;2.93;;;2.60;;
21305;SDS011;10812;51.838;5.838;2023-01-09T11:11:29;6.70;;;3.60;;
21305;SDS011;10812;51.838;5.838;2023-01-09T11:14:03;3.40;;;2.70;;
21305;SDS011;10812;51.838;5.838;2023-01-09T11:16:34;8.43;;;3.47;;
21305;SDS011;10812;51.838;5.838;2023-01-09T11:19:03;10.63;;;3.70;;
21305;SDS011;10812;51.838;5.838;2023-01-09T11:21:31;5.50;;;3.47;;
21305;SDS011;10812;51.838;5.838;2023-01-09T11:24:17;8.40;;;3.40;;
21305;SDS011;10812;51.838;5.838;2023-01-09T11:32:43;5.67;;;2.33;;
21305;SDS011;10812;51.838;5.838;2023-01-09T11:35:16;3.23;;;2.00;;
21305;SDS011;10812;51.838;5.838;2023-01-09T11:37:55;4.40;;;2.03;;
21305;SDS011;10812;51.838;5.838;2023-01-09T11:40:36;3.93;;;2.07;;
21305;SDS011;10812;51.838;5.838;2023-01-09T11:43:13;2.33;;;1.57;;
21305;SDS011;10812;51.838;5.838;2023-01-09T11:45:53;6.30;;;2.27;;
21305;SDS011;10812;51.838;5.838;2023-01-09T11:48:38;3.90;;;1.70;;
21305;SDS011;10812;51.838;5.838;2023-01-09T11:51:16;3.43;;;1.80;;
21305;SDS011;10812;51.838;5.838;2023-01-09T11:53:54;2.83;;;1.43;;
21305;SDS011;10812;51.838;5.838;2023-01-09T11:56:31;3.70;;;1.70;;
21305;SDS011;10812;51.838;5.838;2023-01-09T11:59:01;4.77;;;1.73;;
21305;SDS011;10812;51.838;5.838;2023-01-09T12:01:38;4.67;;;1.67;;
21305;SDS011;10812;51.838;5.838;2023-01-09T12:04:36;8.40;;;1.90;;
21305;SDS011;10812;51.838;5.838;2023-01-09T12:10:15;5.67;;;2.23;;
21305;SDS011;10812;51.838;5.838;2023-01-09T12:12:59;6.77;;;2.40;;
21305;SDS011;10812;51.838;5.838;2023-01-09T12:15:40;11.80;;;3.13;;
21305;SDS011;10812;51.838;5.838;2023-01-09T12:18:21;7.67;;;2.30;;
21305;SDS011;10812;51.838;5.838;2023-01-09T12:21:15;7.20;;;2.47;;
21305;SDS011;10812;51.838;5.838;2023-01-09T12:26:54;5.27;;;2.20;;
21305;SDS011;10812;51.838;5.838;2023-01-09T12:29:35;3.80;;;1.90;;
21305;SDS011;10812;51.838;5.838;2023-01-09T12:32:26;4.83;;;2.30;;
21305;SDS011;10812;51.838;5.838;2023-01-09T12:35:11;8.53;;;2.30;;
21305;SDS011;10812;51.838;5.838;2023-01-09T12:37:59;5.90;;;2.50;;
21305;SDS011;10812;51.838;5.838;2023-01-09T12:40:43;5.83;;;1.80;;
21305;SDS011;10812;51.838;5.838;2023-01-09T12:43:31;6.50;;;2.00;;
21305;SDS011;10812;51.838;5.838;2023-01-09T12:46:12;3.80;;;1.50;;
21305;SDS011;10812;51.838;5.838;2023-01-09T12:48:47;5.20;;;2.00;;
21305;SDS011;10812;51.838;5.838;2023-01-09T12:51:32;6.23;;;1.83;;
21305;SDS011;10812;51.838;5.838;2023-01-09T12:54:08;4.97;;;1.63;;
21305;SDS011;10812;51.838;5.838;2023-01-09T12:56:42;2.87;;;1.53;;
21305;SDS011;10812;51.838;5.838;2023-01-09T12:59:20;4.47;;;1.30;;
21305;SDS011;10812;51.838;5.838;2023-01-09T13:02:03;2.97;;;1.20;;
21305;SDS011;10812;51.838;5.838;2023-01-09T13:04:38;4.10;;;1.27;;
21305;SDS011;10812;51.838;5.838;2023-01-09T13:07:12;5.43;;;1.00;;
21305;SDS011;10812;51.838;5.838;2023-01-09T13:09:48;3.13;;;1.47;;
21305;SDS011;10812;51.838;5.838;2023-01-09T13:12:20;4.27;;;1.43;;
21305;SDS011;10812;51.838;5.838;2023-01-09T13:14:52;4.20;;;1.70;;
21305;SDS011;10812;51.838;5.838;2023-01-09T13:17:24;3.30;;;1.60;;
21305;SDS011;10812;51.838;5.838;2023-01-09T13:19:56;5.17;;;2.47;;
21305;SDS011;10812;51.838;5.838;2023-01-09T13:22:25;5.77;;;2.30;;
21305;SDS011;10812;51.838;5.838;2023-01-09T13:25:06;5.97;;;2.17;;
21305;SDS011;10812;51.838;5.838;2023-01-09T13:27:48;4.83;;;1.83;;
21305;SDS011;10812;51.838;5.838;2023-01-09T13:30:29;3.27;;;1.50;;
21305;SDS011;10812;51.838;5.838;2023-01-09T13:33:06;2.40;;;1.67;;
21305;SDS011;10812;51.838;5.838;2023-01-09T13:35:46;4.53;;;1.73;;
21305;SDS011;10812;51.838;5.838;2023-01-09T13:38:20;5.33;;;2.00;;
21305;SDS011;10812;51.838;5.838;2023-01-09T13:41:01;3.87;;;1.60;;
21305;SDS011;10812;51.838;5.838;2023-01-09T13:43:54;5.57;;;2.00;;
21305;SDS011;10812;51.838;5.838;2023-01-09T13:46:34;5.27;;;1.80;;
21305;SDS011;10812;51.838;5.838;2023-01-09T13:49:05;5.57;;;1.80;;
21305;SDS011;10812;51.838;5.838;2023-01-09T13:51:35;5.67;;;1.70;;
21305;SDS011;10812;51.838;5.838;2023-01-09T13:57:29;2.27;;;1.10;;
21305;SDS011;10812;51.838;5.838;2023-01-09T14:03:19;1.33;;;0.73;;
21305;SDS011;10812;51.838;5.838;2023-01-09T14:08:48;4.23;;;0.83;;
21305;SDS011;10812;51.838;5.838;2023-01-09T14:11:32;2.33;;;0.90;;
21305;SDS011;10812;51.838;5.838;2023-01-09T14:14:03;3.53;;;0.80;;
21305;SDS011;10812;51.838;5.838;2023-01-09T14:16:39;1.50;;;0.90;;
21305;SDS011;10812;51.838;5.838;2023-01-09T14:19:23;2.17;;;0.80;;
21305;SDS011;10812;51.838;5.838;2023-01-09T14:22:00;3.33;;;1.07;;
21305;SDS011;10812;51.838;5.838;2023-01-09T14:24:29;3.63;;;1.30;;
21305;SDS011;10812;51.838;5.838;2023-01-09T14:27:00;3.47;;;1.13;;
21305;SDS011;10812;51.838;5.838;2023-01-09T14:29:39;3.40;;;1.37;;
21305;SDS011;10812;51.838;5.838;2023-01-09T14:35:16;2.27;;;1.33;;
21305;SDS011;10812;51.838;5.838;2023-01-09T14:37:55;4.50;;;1.53;;
21305;SDS011;10812;51.838;5.838;2023-01-09T14:40:30;5.93;;;1.80;;
21305;SDS011;10812;51.838;5.838;2023-01-09T14:43:01;4.83;;;1.80;;
21305;SDS011;10812;51.838;5.838;2023-01-09T14:45:40;2.87;;;1.83;;
21305;SDS011;10812;51.838;5.838;2023-01-09T14:48:15;5.10;;;1.73;;
21305;SDS011;10812;51.838;5.838;2023-01-09T14:50:46;4.57;;;1.80;;
21305;SDS011;10812;51.838;5.838;2023-01-09T14:53:21;4.73;;;1.97;;
21305;SDS011;10812;51.838;5.838;2023-01-09T14:55:51;4.37;;;2.30;;
21305;SDS011;10812;51.838;5.838;2023-01-09T14:58:21;5.23;;;1.87;;
21305;SDS011;10812;51.838;5.838;2023-01-09T15:00:53;2.80;;;1.67;;
21305;SDS011;10812;51.838;5.838;2023-01-09T15:03:25;6.43;;;1.97;;
21305;SDS011;10812;51.838;5.838;2023-01-09T15:05:58;3.47;;;1.77;;
21305;SDS011;10812;51.838;5.838;2023-01-09T15:08:27;3.53;;;1.87;;
21305;SDS011;10812;51.838;5.838;2023-01-09T15:10:56;7.10;;;1.80;;
21305;SDS011;10812;51.838;5.838;2023-01-09T15:13:30;5.30;;;2.00;;
21305;SDS011;10812;51.838;5.838;2023-01-09T15:16:03;5.13;;;1.83;;
21305;SDS011;10812;51.838;5.838;2023-01-09T15:18:34;5.47;;;1.73;;
21305;SDS011;10812;51.838;5.838;2023-01-09T15:21:13;6.80;;;1.97;;
21305;SDS011;10812;51.838;5.838;2023-01-09T15:23:45;7.17;;;3.23;;
21305;SDS011;10812;51.838;5.838;2023-01-09T15:26:18;5.83;;;2.50;;
21305;SDS011;10812;51.838;5.838;2023-01-09T15:28:51;8.10;;;2.23;;
21305;SDS011;10812;51.838;5.838;2023-01-09T15:31:22;6.10;;;2.30;;
21305;SDS011;10812;51.838;5.838;2023-01-09T15:33:50;5.90;;;2.57;;
21305;SDS011;10812;51.838;5.838;2023-01-09T15:36:19;6.03;;;2.13;;
21305;SDS011;10812;51.838;5.838;2023-01-09T15:38:50;6.40;;;1.73;;
21305;SDS011;10812;51.838;5.838;2023-01-09T15:41:22;8.70;;;2.30;;
21305;SDS011;10812;51.838;5.838;2023-01-09T15:44:11;7.73;;;2.33;;
21305;SDS011;10812;51.838;5.838;2023-01-09T15:46:43;8.97;;;2.60;;
21305;SDS011;10812;51.838;5.838;2023-01-09T15:49:15;7.83;;;2.27;;
21305;SDS011;10812;51.838;5.838;2023-01-09T15:51:44;6.40;;;2.67;;
21305;SDS011;10812;51.838;5.838;2023-01-09T15:54:14;6.50;;;2.20;;
21305;SDS011;10812;51.838;5.838;2023-01-09T15:56:44;7.77;;;2.30;;
21305;SDS011;10812;51.838;5.838;2023-01-09T15:59:23;6.00;;;2.20;;
21305;SDS011;10812;51.838;5.838;2023-01-09T16:01:56;9.90;;;2.20;;
21305;SDS011;10812;51.838;5.838;2023-01-09T16:04:40;10.13;;;2.80;;
21305;SDS011;10812;51.838;5.838;2023-01-09T16:07:10;7.03;;;2.43;;